KGVT/GVT METAR and TAF weather

Enter ICAO airport designator
Station Type Date Time Source
KGVT METAR 2019/12/07 04:50 UTC NOAA

KGVT 070450Z AUTO 35008KT 10SM CLR 10/04 A3032 RMK AO2


Station Type Date Time Source
KGVT Decoded METAR 2019/12/07 04:50 UTC NOAA

Greenville / Majors, TX, United States (KGVT) 33-04N 096-04W
Dec 06, 2019 - 11:50 PM EST / 2019.12.07 0450 UTC
Wind: from the N (350 degrees) at 9 MPH (8 KT):0
Visibility: 10 mile(s):0
Sky conditions: clear
Temperature: 50 F (10 C)
Dew Point: 39 F (4 C)
Relative Humidity: 66%
Pressure (altimeter): 30.32 in. Hg (1026 hPa)
ob: KGVT 070450Z AUTO 35008KT 10SM CLR 10/04 A3032 RMK AO2
cycle: 5

Station Type Date Time Source
KGVT TAF UTC NOAA

Error!

Example: see airport list